sensor_id;sensor_type;location;lat;lon;timestamp;P1;durP1;ratioP1;P2;durP2;ratioP2
76599;SDS011;65489;52.048;6.090;2023-09-08T00:01:32;2.95;;;1.80;;
76599;SDS011;65489;52.048;6.090;2023-09-08T00:03:58;2.05;;;1.60;;
76599;SDS011;65489;52.048;6.090;2023-09-08T00:06:23;2.25;;;2.00;;
76599;SDS011;65489;52.048;6.090;2023-09-08T00:08:49;1.98;;;1.77;;
76599;SDS011;65489;52.048;6.090;2023-09-08T00:11:14;2.92;;;2.00;;
76599;SDS011;65489;52.048;6.090;2023-09-08T00:13:39;2.90;;;1.95;;
76599;SDS011;65489;52.048;6.090;2023-09-08T00:16:05;2.75;;;1.67;;
76599;SDS011;65489;52.048;6.090;2023-09-08T00:18:32;2.15;;;1.95;;
76599;SDS011;65489;52.048;6.090;2023-09-08T00:20:58;3.08;;;2.20;;
76599;SDS011;65489;52.048;6.090;2023-09-08T00:23:23;2.22;;;2.03;;
76599;SDS011;65489;52.048;6.090;2023-09-08T00:25:49;2.13;;;1.92;;
76599;SDS011;65489;52.048;6.090;2023-09-08T00:28:14;2.22;;;1.90;;
76599;SDS011;65489;52.048;6.090;2023-09-08T00:30:40;2.20;;;1.90;;
76599;SDS011;65489;52.048;6.090;2023-09-08T00:33:06;1.85;;;1.75;;
76599;SDS011;65489;52.048;6.090;2023-09-08T00:35:34;2.17;;;1.90;;
76599;SDS011;65489;52.048;6.090;2023-09-08T00:38:00;2.05;;;1.88;;
76599;SDS011;65489;52.048;6.090;2023-09-08T00:40:26;2.15;;;1.60;;
76599;SDS011;65489;52.048;6.090;2023-09-08T00:42:52;2.65;;;2.00;;
76599;SDS011;65489;52.048;6.090;2023-09-08T00:45:18;2.35;;;1.80;;
76599;SDS011;65489;52.048;6.090;2023-09-08T00:47:43;2.63;;;2.10;;
76599;SDS011;65489;52.048;6.090;2023-09-08T00:50:09;2.17;;;1.98;;
76599;SDS011;65489;52.048;6.090;2023-09-08T00:52:35;2.08;;;1.85;;
76599;SDS011;65489;52.048;6.090;2023-09-08T00:55:00;2.28;;;1.85;;
76599;SDS011;65489;52.048;6.090;2023-09-08T00:57:26;2.20;;;1.83;;
76599;SDS011;65489;52.048;6.090;2023-09-08T00:59:52;4.72;;;2.10;;
76599;SDS011;65489;52.048;6.090;2023-09-08T01:02:17;2.13;;;1.92;;
76599;SDS011;65489;52.048;6.090;2023-09-08T01:04:43;2.17;;;1.55;;
76599;SDS011;65489;52.048;6.090;2023-09-08T01:07:09;1.88;;;1.77;;
76599;SDS011;65489;52.048;6.090;2023-09-08T01:09:35;2.92;;;1.92;;
76599;SDS011;65489;52.048;6.090;2023-09-08T01:12:05;2.55;;;2.17;;
76599;SDS011;65489;52.048;6.090;2023-09-08T01:14:30;1.95;;;1.70;;
76599;SDS011;65489;52.048;6.090;2023-09-08T01:16:56;2.75;;;1.90;;
76599;SDS011;65489;52.048;6.090;2023-09-08T01:19:22;1.75;;;1.63;;
76599;SDS011;65489;52.048;6.090;2023-09-08T01:25:06;1.88;;;1.67;;
76599;SDS011;65489;52.048;6.090;2023-09-08T01:27:38;2.03;;;1.75;;
76599;SDS011;65489;52.048;6.090;2023-09-08T01:30:06;3.35;;;1.70;;
76599;SDS011;65489;52.048;6.090;2023-09-08T01:32:32;2.38;;;1.77;;
76599;SDS011;65489;52.048;6.090;2023-09-08T01:34:58;2.80;;;1.75;;
76599;SDS011;65489;52.048;6.090;2023-09-08T01:37:24;2.20;;;1.70;;
76599;SDS011;65489;52.048;6.090;2023-09-08T01:39:50;2.90;;;1.80;;
76599;SDS011;65489;52.048;6.090;2023-09-08T01:42:15;1.80;;;1.70;;
76599;SDS011;65489;52.048;6.090;2023-09-08T01:44:41;2.08;;;1.70;;
76599;SDS011;65489;52.048;6.090;2023-09-08T01:47:06;2.22;;;1.85;;
76599;SDS011;65489;52.048;6.090;2023-09-08T01:49:32;1.92;;;1.73;;
76599;SDS011;65489;52.048;6.090;2023-09-08T01:51:57;1.95;;;1.80;;
76599;SDS011;65489;52.048;6.090;2023-09-08T01:54:23;2.20;;;1.60;;
76599;SDS011;65489;52.048;6.090;2023-09-08T01:56:48;2.03;;;1.73;;
76599;SDS011;65489;52.048;6.090;2023-09-08T01:59:14;2.03;;;1.80;;
76599;SDS011;65489;52.048;6.090;2023-09-08T02:01:39;2.40;;;1.85;;
76599;SDS011;65489;52.048;6.090;2023-09-08T02:04:06;1.58;;;1.40;;
76599;SDS011;65489;52.048;6.090;2023-09-08T02:06:32;2.03;;;1.83;;
76599;SDS011;65489;52.048;6.090;2023-09-08T02:08:58;3.17;;;1.90;;
76599;SDS011;65489;52.048;6.090;2023-09-08T02:11:24;2.20;;;2.00;;
76599;SDS011;65489;52.048;6.090;2023-09-08T02:13:50;2.00;;;1.75;;
76599;SDS011;65489;52.048;6.090;2023-09-08T02:16:15;2.85;;;2.08;;
76599;SDS011;65489;52.048;6.090;2023-09-08T02:18:41;1.90;;;1.70;;
76599;SDS011;65489;52.048;6.090;2023-09-08T02:21:07;3.22;;;1.92;;
76599;SDS011;65489;52.048;6.090;2023-09-08T02:23:33;2.10;;;1.90;;
76599;SDS011;65489;52.048;6.090;2023-09-08T02:25:58;2.08;;;1.70;;
76599;SDS011;65489;52.048;6.090;2023-09-08T02:28:24;1.70;;;1.60;;
76599;SDS011;65489;52.048;6.090;2023-09-08T02:30:51;1.95;;;1.75;;
76599;SDS011;65489;52.048;6.090;2023-09-08T02:33:16;2.30;;;1.65;;
76599;SDS011;65489;52.048;6.090;2023-09-08T02:35:42;1.80;;;1.67;;
76599;SDS011;65489;52.048;6.090;2023-09-08T02:38:09;1.65;;;1.55;;
76599;SDS011;65489;52.048;6.090;2023-09-08T02:40:35;1.95;;;1.60;;
76599;SDS011;65489;52.048;6.090;2023-09-08T02:43:02;2.33;;;1.73;;
76599;SDS011;65489;52.048;6.090;2023-09-08T02:45:28;2.05;;;1.85;;
76599;SDS011;65489;52.048;6.090;2023-09-08T02:47:54;2.00;;;1.80;;
76599;SDS011;65489;52.048;6.090;2023-09-08T02:50:20;3.17;;;1.85;;
76599;SDS011;65489;52.048;6.090;2023-09-08T02:52:45;2.78;;;1.75;;
76599;SDS011;65489;52.048;6.090;2023-09-08T02:55:11;1.88;;;1.50;;
76599;SDS011;65489;52.048;6.090;2023-09-08T02:57:37;1.92;;;1.73;;
76599;SDS011;65489;52.048;6.090;2023-09-08T03:00:04;2.10;;;1.80;;
76599;SDS011;65489;52.048;6.090;2023-09-08T03:02:30;2.90;;;1.80;;
76599;SDS011;65489;52.048;6.090;2023-09-08T03:04:56;1.83;;;1.63;;
76599;SDS011;65489;52.048;6.090;2023-09-08T03:07:22;2.00;;;1.80;;
76599;SDS011;65489;52.048;6.090;2023-09-08T03:09:47;3.00;;;1.77;;
76599;SDS011;65489;52.048;6.090;2023-09-08T03:12:13;1.75;;;1.65;;
76599;SDS011;65489;52.048;6.090;2023-09-08T03:14:39;2.58;;;1.80;;
76599;SDS011;65489;52.048;6.090;2023-09-08T03:17:05;3.45;;;1.60;;
76599;SDS011;65489;52.048;6.090;2023-09-08T03:19:31;3.35;;;1.80;;
76599;SDS011;65489;52.048;6.090;2023-09-08T03:21:56;3.60;;;1.60;;
76599;SDS011;65489;52.048;6.090;2023-09-08T03:24:22;2.05;;;1.80;;
76599;SDS011;65489;52.048;6.090;2023-09-08T03:26:47;2.50;;;1.90;;
76599;SDS011;65489;52.048;6.090;2023-09-08T03:29:13;1.65;;;1.55;;
76599;SDS011;65489;52.048;6.090;2023-09-08T03:31:39;2.95;;;1.73;;
76599;SDS011;65489;52.048;6.090;2023-09-08T03:34:04;1.83;;;1.60;;
76599;SDS011;65489;52.048;6.090;2023-09-08T03:36:30;1.75;;;1.60;;
76599;SDS011;65489;52.048;6.090;2023-09-08T03:38:56;2.10;;;1.70;;
76599;SDS011;65489;52.048;6.090;2023-09-08T03:41:23;2.03;;;1.70;;
76599;SDS011;65489;52.048;6.090;2023-09-08T03:43:50;2.88;;;1.60;;
76599;SDS011;65489;52.048;6.090;2023-09-08T03:46:16;2.05;;;1.55;;
76599;SDS011;65489;52.048;6.090;2023-09-08T03:48:41;2.05;;;1.60;;
76599;SDS011;65489;52.048;6.090;2023-09-08T03:51:07;1.90;;;1.63;;
76599;SDS011;65489;52.048;6.090;2023-09-08T03:53:32;2.53;;;1.80;;
76599;SDS011;65489;52.048;6.090;2023-09-08T03:55:58;2.60;;;2.10;;
76599;SDS011;65489;52.048;6.090;2023-09-08T03:58:24;2.10;;;1.80;;
76599;SDS011;65489;52.048;6.090;2023-09-08T04:00:50;1.65;;;1.52;;
76599;SDS011;65489;52.048;6.090;2023-09-08T04:03:15;2.08;;;1.80;;
76599;SDS011;65489;52.048;6.090;2023-09-08T04:05:41;2.05;;;1.88;;
76599;SDS011;65489;52.048;6.090;2023-09-08T04:08:06;1.92;;;1.67;;
76599;SDS011;65489;52.048;6.090;2023-09-08T04:10:32;2.17;;;1.73;;
76599;SDS011;65489;52.048;6.090;2023-09-08T04:12:58;2.53;;;1.85;;
76599;SDS011;65489;52.048;6.090;2023-09-08T04:15:24;1.70;;;1.60;;
76599;SDS011;65489;52.048;6.090;2023-09-08T04:17:49;2.33;;;1.80;;
76599;SDS011;65489;52.048;6.090;2023-09-08T04:20:15;2.10;;;1.90;;
76599;SDS011;65489;52.048;6.090;2023-09-08T04:22:40;2.25;;;1.95;;
76599;SDS011;65489;52.048;6.090;2023-09-08T04:25:06;2.92;;;1.90;;
76599;SDS011;65489;52.048;6.090;2023-09-08T04:27:32;3.17;;;1.77;;
76599;SDS011;65489;52.048;6.090;2023-09-08T04:29:58;2.50;;;1.88;;
76599;SDS011;65489;52.048;6.090;2023-09-08T04:32:24;3.17;;;1.55;;
76599;SDS011;65489;52.048;6.090;2023-09-08T04:34:50;2.08;;;1.85;;
76599;SDS011;65489;52.048;6.090;2023-09-08T04:37:16;1.95;;;1.75;;
76599;SDS011;65489;52.048;6.090;2023-09-08T04:39:43;1.75;;;1.65;;
76599;SDS011;65489;52.048;6.090;2023-09-08T04:42:09;2.13;;;1.75;;
76599;SDS011;65489;52.048;6.090;2023-09-08T04:44:34;2.03;;;1.80;;
76599;SDS011;65489;52.048;6.090;2023-09-08T04:47:00;2.90;;;2.00;;
76599;SDS011;65489;52.048;6.090;2023-09-08T04:49:26;1.85;;;1.67;;
76599;SDS011;65489;52.048;6.090;2023-09-08T04:51:53;2.50;;;1.88;;
76599;SDS011;65489;52.048;6.090;2023-09-08T04:54:19;2.10;;;1.90;;
76599;SDS011;65489;52.048;6.090;2023-09-08T04:56:46;2.90;;;1.75;;
76599;SDS011;65489;52.048;6.090;2023-09-08T04:59:12;1.88;;;1.75;;
76599;SDS011;65489;52.048;6.090;2023-09-08T05:01:38;2.58;;;1.92;;
76599;SDS011;65489;52.048;6.090;2023-09-08T05:04:06;2.20;;;1.75;;
76599;SDS011;65489;52.048;6.090;2023-09-08T05:06:31;1.95;;;1.60;;
76599;SDS011;65489;52.048;6.090;2023-09-08T05:08:57;2.40;;;1.70;;
76599;SDS011;65489;52.048;6.090;2023-09-08T05:11:25;2.38;;;1.83;;
76599;SDS011;65489;52.048;6.090;2023-09-08T05:13:51;2.08;;;1.80;;
76599;SDS011;65489;52.048;6.090;2023-09-08T05:16:16;2.30;;;1.80;;
76599;SDS011;65489;52.048;6.090;2023-09-08T05:18:48;2.55;;;1.90;;
76599;SDS011;65489;52.048;6.090;2023-09-08T05:21:14;3.05;;;2.00;;
76599;SDS011;65489;52.048;6.090;2023-09-08T05:23:40;3.70;;;2.03;;
76599;SDS011;65489;52.048;6.090;2023-09-08T05:26:06;2.05;;;1.85;;
76599;SDS011;65489;52.048;6.090;2023-09-08T05:28:32;3.60;;;1.92;;
76599;SDS011;65489;52.048;6.090;2023-09-08T05:30:58;2.05;;;1.85;;
76599;SDS011;65489;52.048;6.090;2023-09-08T05:33:24;2.80;;;1.83;;
76599;SDS011;65489;52.048;6.090;2023-09-08T05:35:50;6.28;;;2.55;;
76599;SDS011;65489;52.048;6.090;2023-09-08T05:38:15;2.95;;;1.98;;
76599;SDS011;65489;52.048;6.090;2023-09-08T05:40:41;2.65;;;1.90;;
76599;SDS011;65489;52.048;6.090;2023-09-08T05:43:06;2.67;;;2.03;;
76599;SDS011;65489;52.048;6.090;2023-09-08T05:45:32;1.88;;;1.63;;
76599;SDS011;65489;52.048;6.090;2023-09-08T05:47:58;2.30;;;1.98;;
76599;SDS011;65489;52.048;6.090;2023-09-08T05:50:25;3.75;;;2.03;;
76599;SDS011;65489;52.048;6.090;2023-09-08T05:52:52;3.17;;;2.08;;
76599;SDS011;65489;52.048;6.090;2023-09-08T05:55:18;2.45;;;1.83;;
76599;SDS011;65489;52.048;6.090;2023-09-08T05:57:43;4.68;;;2.00;;
76599;SDS011;65489;52.048;6.090;2023-09-08T06:00:09;2.35;;;2.03;;
76599;SDS011;65489;52.048;6.090;2023-09-08T06:02:45;3.90;;;1.98;;
76599;SDS011;65489;52.048;6.090;2023-09-08T06:05:13;2.75;;;1.77;;
76599;SDS011;65489;52.048;6.090;2023-09-08T06:07:38;2.25;;;1.90;;
76599;SDS011;65489;52.048;6.090;2023-09-08T06:10:05;2.55;;;2.20;;
76599;SDS011;65489;52.048;6.090;2023-09-08T06:12:31;2.60;;;1.70;;
76599;SDS011;65489;52.048;6.090;2023-09-08T06:14:57;2.30;;;1.77;;
76599;SDS011;65489;52.048;6.090;2023-09-08T06:17:22;2.42;;;1.92;;
76599;SDS011;65489;52.048;6.090;2023-09-08T06:19:48;2.40;;;1.98;;
76599;SDS011;65489;52.048;6.090;2023-09-08T06:22:13;2.17;;;1.98;;
76599;SDS011;65489;52.048;6.090;2023-09-08T06:24:39;2.05;;;1.85;;
76599;SDS011;65489;52.048;6.090;2023-09-08T06:27:05;2.20;;;1.83;;
76599;SDS011;65489;52.048;6.090;2023-09-08T06:29:33;2.10;;;1.90;;
76599;SDS011;65489;52.048;6.090;2023-09-08T06:31:58;2.10;;;1.88;;
76599;SDS011;65489;52.048;6.090;2023-09-08T06:34:24;2.05;;;1.77;;
76599;SDS011;65489;52.048;6.090;2023-09-08T06:36:49;2.28;;;1.90;;
76599;SDS011;65489;52.048;6.090;2023-09-08T06:39:15;2.33;;;2.13;;
76599;SDS011;65489;52.048;6.090;2023-09-08T06:41:41;2.92;;;1.98;;
76599;SDS011;65489;52.048;6.090;2023-09-08T06:44:09;2.13;;;1.80;;
76599;SDS011;65489;52.048;6.090;2023-09-08T06:46:35;5.05;;;2.13;;
76599;SDS011;65489;52.048;6.090;2023-09-08T06:49:00;2.40;;;2.10;;
76599;SDS011;65489;52.048;6.090;2023-09-08T06:51:26;2.25;;;1.83;;
76599;SDS011;65489;52.048;6.090;2023-09-08T06:53:55;2.05;;;1.80;;
76599;SDS011;65489;52.048;6.090;2023-09-08T06:56:23;2.15;;;1.73;;
76599;SDS011;65489;52.048;6.090;2023-09-08T06:58:52;3.25;;;2.10;;
76599;SDS011;65489;52.048;6.090;2023-09-08T07:01:18;3.55;;;2.00;;
76599;SDS011;65489;52.048;6.090;2023-09-08T07:03:44;2.72;;;2.08;;
76599;SDS011;65489;52.048;6.090;2023-09-08T07:06:12;2.95;;;1.77;;
76599;SDS011;65489;52.048;6.090;2023-09-08T07:08:38;3.03;;;2.00;;
76599;SDS011;65489;52.048;6.090;2023-09-08T07:11:03;3.60;;;1.80;;
76599;SDS011;65489;52.048;6.090;2023-09-08T07:13:29;2.63;;;2.17;;
76599;SDS011;65489;52.048;6.090;2023-09-08T07:15:56;3.45;;;2.30;;
76599;SDS011;65489;52.048;6.090;2023-09-08T07:18:22;3.20;;;2.00;;
76599;SDS011;65489;52.048;6.090;2023-09-08T07:20:47;2.22;;;2.00;;
76599;SDS011;65489;52.048;6.090;2023-09-08T07:23:14;3.15;;;2.30;;
76599;SDS011;65489;52.048;6.090;2023-09-08T07:25:44;2.35;;;2.00;;
76599;SDS011;65489;52.048;6.090;2023-09-08T07:28:14;4.75;;;2.35;;
76599;SDS011;65489;52.048;6.090;2023-09-08T07:30:40;3.58;;;2.28;;
76599;SDS011;65489;52.048;6.090;2023-09-08T07:33:05;3.20;;;2.22;;
76599;SDS011;65489;52.048;6.090;2023-09-08T07:35:31;3.03;;;2.33;;
76599;SDS011;65489;52.048;6.090;2023-09-08T07:37:56;6.07;;;3.15;;
76599;SDS011;65489;52.048;6.090;2023-09-08T07:40:22;6.38;;;3.35;;
76599;SDS011;65489;52.048;6.090;2023-09-08T07:42:47;9.43;;;3.35;;
76599;SDS011;65489;52.048;6.090;2023-09-08T07:45:13;10.80;;;3.75;;
76599;SDS011;65489;52.048;6.090;2023-09-08T07:47:38;9.70;;;3.65;;
76599;SDS011;65489;52.048;6.090;2023-09-08T07:50:23;10.35;;;4.05;;
76599;SDS011;65489;52.048;6.090;2023-09-08T07:52:51;10.35;;;4.25;;
76599;SDS011;65489;52.048;6.090;2023-09-08T07:55:17;9.50;;;4.55;;
76599;SDS011;65489;52.048;6.090;2023-09-08T07:57:43;10.80;;;4.05;;
76599;SDS011;65489;52.048;6.090;2023-09-08T08:00:09;10.50;;;4.45;;
76599;SDS011;65489;52.048;6.090;2023-09-08T08:05:06;8.85;;;3.83;;
76599;SDS011;65489;52.048;6.090;2023-09-08T08:07:32;14.63;;;4.90;;
76599;SDS011;65489;52.048;6.090;2023-09-08T08:09:57;12.52;;;4.75;;
76599;SDS011;65489;52.048;6.090;2023-09-08T08:12:23;11.57;;;4.70;;
76599;SDS011;65489;52.048;6.090;2023-09-08T08:14:48;14.10;;;4.97;;
76599;SDS011;65489;52.048;6.090;2023-09-08T08:17:14;11.75;;;5.07;;
76599;SDS011;65489;52.048;6.090;2023-09-08T08:19:42;15.38;;;5.28;;
76599;SDS011;65489;52.048;6.090;2023-09-08T08:22:08;12.25;;;5.13;;
76599;SDS011;65489;52.048;6.090;2023-09-08T08:24:33;14.60;;;5.20;;
76599;SDS011;65489;52.048;6.090;2023-09-08T08:26:58;13.65;;;5.65;;
76599;SDS011;65489;52.048;6.090;2023-09-08T08:29:26;15.32;;;5.57;;
76599;SDS011;65489;52.048;6.090;2023-09-08T08:31:52;12.63;;;5.45;;
76599;SDS011;65489;52.048;6.090;2023-09-08T08:34:17;13.30;;;5.90;;
76599;SDS011;65489;52.048;6.090;2023-09-08T08:36:43;15.70;;;6.13;;
76599;SDS011;65489;52.048;6.090;2023-09-08T08:39:08;11.95;;;5.25;;
76599;SDS011;65489;52.048;6.090;2023-09-08T08:41:34;16.00;;;5.32;;
76599;SDS011;65489;52.048;6.090;2023-09-08T08:44:03;12.63;;;5.32;;
76599;SDS011;65489;52.048;6.090;2023-09-08T08:46:29;15.30;;;5.68;;
76599;SDS011;65489;52.048;6.090;2023-09-08T08:48:54;12.85;;;5.25;;
76599;SDS011;65489;52.048;6.090;2023-09-08T08:51:20;12.63;;;4.95;;
76599;SDS011;65489;52.048;6.090;2023-09-08T08:53:48;13.80;;;5.57;;
76599;SDS011;65489;52.048;6.090;2023-09-08T08:56:13;14.50;;;5.07;;
76599;SDS011;65489;52.048;6.090;2023-09-08T08:58:39;12.15;;;5.03;;
76599;SDS011;65489;52.048;6.090;2023-09-08T09:01:05;11.82;;;5.07;;
76599;SDS011;65489;52.048;6.090;2023-09-08T09:03:31;11.45;;;5.40;;
76599;SDS011;65489;52.048;6.090;2023-09-08T09:05:59;13.20;;;5.35;;
76599;SDS011;65489;52.048;6.090;2023-09-08T09:08:25;13.05;;;5.65;;
76599;SDS011;65489;52.048;6.090;2023-09-08T09:10:52;11.63;;;5.70;;
76599;SDS011;65489;52.048;6.090;2023-09-08T09:13:20;10.70;;;5.05;;
76599;SDS011;65489;52.048;6.090;2023-09-08T09:15:46;11.00;;;5.07;;
76599;SDS011;65489;52.048;6.090;2023-09-08T09:18:14;12.10;;;5.03;;
76599;SDS011;65489;52.048;6.090;2023-09-08T09:20:40;12.98;;;5.65;;
76599;SDS011;65489;52.048;6.090;2023-09-08T09:23:06;12.00;;;4.88;;
76599;SDS011;65489;52.048;6.090;2023-09-08T09:25:31;10.60;;;4.70;;
76599;SDS011;65489;52.048;6.090;2023-09-08T09:27:58;11.35;;;5.15;;
76599;SDS011;65489;52.048;6.090;2023-09-08T09:30:25;9.40;;;4.70;;
76599;SDS011;65489;52.048;6.090;2023-09-08T09:33:04;10.98;;;4.70;;
76599;SDS011;65489;52.048;6.090;2023-09-08T09:35:43;8.45;;;4.38;;
76599;SDS011;65489;52.048;6.090;2023-09-08T09:38:10;10.07;;;4.97;;
76599;SDS011;65489;52.048;6.090;2023-09-08T09:40:36;7.50;;;4.30;;
76599;SDS011;65489;52.048;6.090;2023-09-08T09:43:02;9.50;;;4.57;;
76599;SDS011;65489;52.048;6.090;2023-09-08T09:45:30;9.68;;;4.28;;
76599;SDS011;65489;52.048;6.090;2023-09-08T09:47:55;8.57;;;4.32;;
76599;SDS011;65489;52.048;6.090;2023-09-08T09:50:55;7.78;;;4.30;;
76599;SDS011;65489;52.048;6.090;2023-09-08T09:53:14;7.55;;;4.03;;
76599;SDS011;65489;52.048;6.090;2023-09-08T09:55:41;6.25;;;4.22;;
76599;SDS011;65489;52.048;6.090;2023-09-08T09:58:08;7.65;;;3.85;;
76599;SDS011;65489;52.048;6.090;2023-09-08T10:00:35;8.02;;;3.67;;
76599;SDS011;65489;52.048;6.090;2023-09-08T10:03:02;8.48;;;4.35;;
76599;SDS011;65489;52.048;6.090;2023-09-08T10:05:29;6.68;;;3.95;;
76599;SDS011;65489;52.048;6.090;2023-09-08T10:07:54;7.30;;;4.15;;
76599;SDS011;65489;52.048;6.090;2023-09-08T10:10:20;8.10;;;4.30;;
76599;SDS011;65489;52.048;6.090;2023-09-08T10:12:53;6.80;;;4.00;;
76599;SDS011;65489;52.048;6.090;2023-09-08T10:15:20;7.70;;;3.90;;
76599;SDS011;65489;52.048;6.090;2023-09-08T10:17:47;6.40;;;3.60;;
76599;SDS011;65489;52.048;6.090;2023-09-08T10:20:18;6.30;;;3.60;;
76599;SDS011;65489;52.048;6.090;2023-09-08T10:22:46;6.82;;;3.85;;
76599;SDS011;65489;52.048;6.090;2023-09-08T10:25:25;7.60;;;3.90;;
76599;SDS011;65489;52.048;6.090;2023-09-08T10:27:52;8.27;;;3.65;;
76599;SDS011;65489;52.048;6.090;2023-09-08T10:30:19;5.70;;;3.63;;
76599;SDS011;65489;52.048;6.090;2023-09-08T10:32:46;6.88;;;3.38;;
76599;SDS011;65489;52.048;6.090;2023-09-08T10:35:15;5.55;;;3.63;;
76599;SDS011;65489;52.048;6.090;2023-09-08T10:37:42;5.65;;;3.22;;
76599;SDS011;65489;52.048;6.090;2023-09-08T10:40:20;5.40;;;3.42;;
76599;SDS011;65489;52.048;6.090;2023-09-08T10:42:47;5.05;;;3.22;;
76599;SDS011;65489;52.048;6.090;2023-09-08T10:45:19;7.03;;;3.53;;
76599;SDS011;65489;52.048;6.090;2023-09-08T10:50:18;5.40;;;3.05;;
76599;SDS011;65489;52.048;6.090;2023-09-08T10:52:44;4.53;;;3.20;;
76599;SDS011;65489;52.048;6.090;2023-09-08T10:55:11;5.43;;;3.28;;
76599;SDS011;65489;52.048;6.090;2023-09-08T10:57:37;5.00;;;3.28;;
76599;SDS011;65489;52.048;6.090;2023-09-08T11:00:03;5.88;;;3.03;;
76599;SDS011;65489;52.048;6.090;2023-09-08T11:02:47;5.00;;;2.83;;
76599;SDS011;65489;52.048;6.090;2023-09-08T11:05:14;4.25;;;3.03;;
76599;SDS011;65489;52.048;6.090;2023-09-08T11:07:41;3.35;;;2.70;;
76599;SDS011;65489;52.048;6.090;2023-09-08T11:10:08;4.68;;;3.13;;
76599;SDS011;65489;52.048;6.090;2023-09-08T11:12:34;4.85;;;3.00;;
76599;SDS011;65489;52.048;6.090;2023-09-08T11:15:01;4.07;;;3.05;;
76599;SDS011;65489;52.048;6.090;2023-09-08T11:17:33;4.90;;;3.15;;
76599;SDS011;65489;52.048;6.090;2023-09-08T11:20:00;3.70;;;2.65;;
76599;SDS011;65489;52.048;6.090;2023-09-08T11:22:27;3.53;;;3.10;;
76599;SDS011;65489;52.048;6.090;2023-09-08T11:24:53;3.13;;;2.47;;
76599;SDS011;65489;52.048;6.090;2023-09-08T11:27:22;3.90;;;2.95;;
76599;SDS011;65489;52.048;6.090;2023-09-08T11:29:49;3.40;;;2.65;;
76599;SDS011;65489;52.048;6.090;2023-09-08T11:32:15;3.83;;;2.42;;
76599;SDS011;65489;52.048;6.090;2023-09-08T11:34:40;3.65;;;2.60;;
76599;SDS011;65489;52.048;6.090;2023-09-08T11:37:14;4.97;;;3.00;;
76599;SDS011;65489;52.048;6.090;2023-09-08T11:39:41;3.53;;;2.83;;
76599;SDS011;65489;52.048;6.090;2023-09-08T11:42:07;3.97;;;2.75;;
76599;SDS011;65489;52.048;6.090;2023-09-08T11:44:37;5.50;;;2.90;;
76599;SDS011;65489;52.048;6.090;2023-09-08T11:47:03;3.38;;;2.80;;
76599;SDS011;65489;52.048;6.090;2023-09-08T11:49:36;3.28;;;2.70;;
76599;SDS011;65489;52.048;6.090;2023-09-08T11:52:02;3.72;;;2.60;;
76599;SDS011;65489;52.048;6.090;2023-09-08T11:54:28;4.30;;;2.50;;
76599;SDS011;65489;52.048;6.090;2023-09-08T11:56:55;3.33;;;2.65;;
76599;SDS011;65489;52.048;6.090;2023-09-08T11:59:20;3.25;;;2.50;;
76599;SDS011;65489;52.048;6.090;2023-09-08T12:01:46;2.78;;;2.53;;
76599;SDS011;65489;52.048;6.090;2023-09-08T12:04:18;2.92;;;2.45;;
76599;SDS011;65489;52.048;6.090;2023-09-08T12:06:48;3.05;;;2.50;;
76599;SDS011;65489;52.048;6.090;2023-09-08T12:09:14;4.32;;;2.42;;
76599;SDS011;65489;52.048;6.090;2023-09-08T12:11:39;3.25;;;2.75;;
76599;SDS011;65489;52.048;6.090;2023-09-08T12:14:07;2.67;;;2.47;;
76599;SDS011;65489;52.048;6.090;2023-09-08T12:16:34;4.25;;;2.53;;
76599;SDS011;65489;52.048;6.090;2023-09-08T12:19:00;3.38;;;2.50;;
76599;SDS011;65489;52.048;6.090;2023-09-08T12:21:25;3.25;;;2.55;;
76599;SDS011;65489;52.048;6.090;2023-09-08T12:23:52;3.05;;;2.75;;
76599;SDS011;65489;52.048;6.090;2023-09-08T12:26:19;3.13;;;2.67;;
76599;SDS011;65489;52.048;6.090;2023-09-08T12:28:46;2.78;;;2.38;;
76599;SDS011;65489;52.048;6.090;2023-09-08T12:31:15;4.60;;;2.60;;
76599;SDS011;65489;52.048;6.090;2023-09-08T12:33:42;2.42;;;2.22;;
76599;SDS011;65489;52.048;6.090;2023-09-08T12:36:15;3.35;;;2.80;;
76599;SDS011;65489;52.048;6.090;2023-09-08T12:38:49;2.72;;;2.40;;
76599;SDS011;65489;52.048;6.090;2023-09-08T12:41:15;2.50;;;2.30;;
76599;SDS011;65489;52.048;6.090;2023-09-08T12:43:41;2.65;;;2.40;;
76599;SDS011;65489;52.048;6.090;2023-09-08T12:46:06;3.17;;;2.58;;
76599;SDS011;65489;52.048;6.090;2023-09-08T12:48:32;3.13;;;2.45;;
76599;SDS011;65489;52.048;6.090;2023-09-08T12:50:57;3.28;;;2.45;;
76599;SDS011;65489;52.048;6.090;2023-09-08T12:53:23;2.97;;;2.60;;
76599;SDS011;65489;52.048;6.090;2023-09-08T12:55:49;2.67;;;2.45;;
76599;SDS011;65489;52.048;6.090;2023-09-08T12:58:15;3.30;;;2.63;;
76599;SDS011;65489;52.048;6.090;2023-09-08T13:00:42;2.72;;;2.42;;
76599;SDS011;65489;52.048;6.090;2023-09-08T13:03:08;3.00;;;2.50;;
76599;SDS011;65489;52.048;6.090;2023-09-08T13:05:33;3.20;;;2.70;;
76599;SDS011;65489;52.048;6.090;2023-09-08T13:07:59;3.00;;;2.70;;
76599;SDS011;65489;52.048;6.090;2023-09-08T13:10:24;3.08;;;2.53;;
76599;SDS011;65489;52.048;6.090;2023-09-08T13:12:50;3.90;;;2.55;;
76599;SDS011;65489;52.048;6.090;2023-09-08T13:15:15;3.17;;;2.42;;
76599;SDS011;65489;52.048;6.090;2023-09-08T13:17:41;3.00;;;2.70;;
76599;SDS011;65489;52.048;6.090;2023-09-08T13:20:07;2.65;;;2.30;;
76599;SDS011;65489;52.048;6.090;2023-09-08T13:22:33;2.58;;;2.15;;
76599;SDS011;65489;52.048;6.090;2023-09-08T13:24:59;2.58;;;2.38;;
76599;SDS011;65489;52.048;6.090;2023-09-08T13:27:24;4.03;;;2.60;;
76599;SDS011;65489;52.048;6.090;2023-09-08T13:29:50;2.50;;;2.30;;
76599;SDS011;65489;52.048;6.090;2023-09-08T13:32:18;2.97;;;2.22;;
76599;SDS011;65489;52.048;6.090;2023-09-08T13:34:44;2.45;;;2.20;;
76599;SDS011;65489;52.048;6.090;2023-09-08T13:37:09;2.97;;;2.50;;
76599;SDS011;65489;52.048;6.090;2023-09-08T13:39:35;2.30;;;2.10;;
76599;SDS011;65489;52.048;6.090;2023-09-08T13:42:00;2.78;;;2.30;;
76599;SDS011;65489;52.048;6.090;2023-09-08T13:44:27;2.72;;;2.42;;
76599;SDS011;65489;52.048;6.090;2023-09-08T13:46:53;2.92;;;2.38;;
76599;SDS011;65489;52.048;6.090;2023-09-08T13:49:19;2.28;;;2.03;;
76599;SDS011;65489;52.048;6.090;2023-09-08T13:51:45;2.60;;;2.40;;
76599;SDS011;65489;52.048;6.090;2023-09-08T13:54:10;2.58;;;2.38;;
76599;SDS011;65489;52.048;6.090;2023-09-08T13:56:40;2.60;;;2.40;;
76599;SDS011;65489;52.048;6.090;2023-09-08T13:59:06;2.58;;;2.28;;
76599;SDS011;65489;52.048;6.090;2023-09-08T14:01:35;3.28;;;2.20;;
76599;SDS011;65489;52.048;6.090;2023-09-08T14:04:02;2.47;;;2.28;;
76599;SDS011;65489;52.048;6.090;2023-09-08T14:06:28;2.67;;;2.42;;
76599;SDS011;65489;52.048;6.090;2023-09-08T14:08:54;3.60;;;2.22;;
76599;SDS011;65489;52.048;6.090;2023-09-08T14:11:20;3.20;;;2.33;;
76599;SDS011;65489;52.048;6.090;2023-09-08T14:13:47;3.67;;;2.30;;
76599;SDS011;65489;52.048;6.090;2023-09-08T14:16:12;2.83;;;2.30;;
76599;SDS011;65489;52.048;6.090;2023-09-08T14:18:38;2.50;;;2.30;;
76599;SDS011;65489;52.048;6.090;2023-09-08T14:21:04;2.50;;;2.30;;
76599;SDS011;65489;52.048;6.090;2023-09-08T14:23:30;2.50;;;2.30;;
76599;SDS011;65489;52.048;6.090;2023-09-08T14:25:56;2.30;;;2.10;;
76599;SDS011;65489;52.048;6.090;2023-09-08T14:28:21;2.80;;;2.50;;
76599;SDS011;65489;52.048;6.090;2023-09-08T14:30:47;2.58;;;2.38;;
76599;SDS011;65489;52.048;6.090;2023-09-08T14:33:12;3.00;;;2.20;;
76599;SDS011;65489;52.048;6.090;2023-09-08T14:35:41;2.45;;;2.25;;
76599;SDS011;65489;52.048;6.090;2023-09-08T14:38:08;2.67;;;2.47;;
76599;SDS011;65489;52.048;6.090;2023-09-08T14:40:34;2.58;;;2.38;;
76599;SDS011;65489;52.048;6.090;2023-09-08T14:42:59;2.42;;;2.22;;
76599;SDS011;65489;52.048;6.090;2023-09-08T14:45:24;2.92;;;2.22;;
76599;SDS011;65489;52.048;6.090;2023-09-08T14:47:52;2.40;;;2.05;;
76599;SDS011;65489;52.048;6.090;2023-09-08T14:50:18;2.42;;;2.20;;